Time;durP1;ratioP1;P1;durP2;ratioP2;P2;SDS_P1;SDS_P2;PMS_P1;PMS_P2;Temp;Humidity;BMP_temperature;BMP_pressure;BME280_temperature;BME280_humidity;BME280_pressure;Samples;Min_cycle;Max_cycle;Signal;HPM_P1;HPM_P2
2023/09/27 00:01:53;;;;;;;18.90;16.40;;;15.00;99.90;;;;;;5093377;28;20039;-71
2023/09/27 00:04:19;;;;;;;20.80;16.90;;;15.00;99.90;;;;;;5075324;28;20043;-71
2023/09/27 00:06:44;;;;;;;20.98;15.90;;;14.90;99.90;;;;;;5093629;28;20039;-71
2023/09/27 00:09:10;;;;;;;18.70;15.45;;;14.90;99.90;;;;;;5093227;28;20032;-71
2023/09/27 00:11:36;;;;;;;19.85;15.77;;;14.90;99.90;;;;;;5093440;28;20503;-71
2023/09/27 00:14:01;;;;;;;19.52;15.70;;;14.90;99.90;;;;;;5093318;28;20074;-71
2023/09/27 00:16:27;;;;;;;18.83;15.85;;;14.90;99.90;;;;;;5093472;28;20036;-71
2023/09/27 00:18:53;;;;;;;20.27;16.48;;;14.90;99.90;;;;;;5093276;28;20047;-71
2023/09/27 00:21:19;;;;;;;19.80;16.23;;;14.80;99.90;;;;;;5093030;28;20031;-71
2023/09/27 00:23:44;;;;;;;17.80;14.63;;;14.80;99.90;;;;;;5092684;28;20097;-71
2023/09/27 00:26:10;;;;;;;17.67;15.75;;;14.80;99.90;;;;;;5093123;28;20123;-71
2023/09/27 00:28:35;;;;;;;22.17;16.63;;;14.70;99.90;;;;;;5092940;28;20032;-71
2023/09/27 00:31:02;;;;;;;20.00;16.42;;;14.70;99.90;;;;;;5092966;28;20036;-71
2023/09/27 00:33:28;;;;;;;23.25;16.02;;;14.70;99.90;;;;;;5092885;28;20046;-71
2023/09/27 00:35:54;;;;;;;21.98;17.25;;;14.70;99.90;;;;;;5092972;28;20044;-71
2023/09/27 00:38:19;;;;;;;19.02;16.17;;;14.70;99.90;;;;;;5092797;28;20046;-71
2023/09/27 00:40:47;;;;;;;21.27;17.30;;;14.80;99.90;;;;;;5058135;28;20051;-71
2023/09/27 00:43:33;;;;;;;23.23;16.38;;;14.70;99.90;;;;;;5092398;28;20032;-71
2023/09/27 00:46:06;;;;;;;22.60;16.83;;;14.70;99.90;;;;;;5092887;28;20040;-71
2023/09/27 00:48:34;;;;;;;21.50;17.52;;;14.70;99.90;;;;;;5092161;28;20036;-71
2023/09/27 00:51:02;;;;;;;21.30;16.00;;;14.70;99.90;;;;;;5092659;28;20039;-71
2023/09/27 00:53:31;;;;;;;23.35;15.40;;;14.70;99.90;;;;;;5092482;28;20036;-71
2023/09/27 00:55:58;;;;;;;22.67;15.90;;;14.70;99.90;;;;;;5074493;28;20048;-71
2023/09/27 00:58:24;;;;;;;22.92;16.65;;;14.60;99.90;;;;;;5074483;28;20108;-71
2023/09/27 01:00:51;;;;;;;22.52;18.13;;;14.70;99.90;;;;;;5074083;28;20407;-72
2023/09/27 01:03:17;;;;;;;22.20;17.25;;;14.70;99.90;;;;;;5092031;28;20035;-71
2023/09/27 01:05:43;;;;;;;22.10;17.77;;;14.70;99.90;;;;;;5092513;28;20044;-71
2023/09/27 01:08:09;;;;;;;21.52;18.52;;;14.60;99.90;;;;;;5074239;28;20114;-71
2023/09/27 01:10:36;;;;;;;21.10;16.48;;;14.70;99.90;;;;;;5092031;28;20125;-71
2023/09/27 01:13:03;;;;;;;21.25;17.40;;;14.60;99.90;;;;;;5092078;28;20040;-72
2023/09/27 01:15:28;;;;;;;24.48;19.23;;;14.70;99.90;;;;;;5092318;28;20043;-71
2023/09/27 01:17:58;;;;;;;22.50;17.17;;;14.60;99.90;;;;;;5074088;28;20085;-71
2023/09/27 01:20:26;;;;;;;22.48;18.30;;;14.60;99.90;;;;;;5091983;28;20051;-71
2023/09/27 01:23:01;;;;;;;22.17;18.77;;;14.60;99.90;;;;;;5073764;28;20040;-71
2023/09/27 01:25:29;;;;;;;21.13;18.27;;;14.60;99.90;;;;;;5092314;28;20081;-71
2023/09/27 01:27:56;;;;;;;21.98;18.00;;;14.70;99.90;;;;;;5092082;28;20036;-71
2023/09/27 01:30:22;;;;;;;24.65;18.92;;;14.60;99.90;;;;;;5073836;28;20368;-71
2023/09/27 01:32:48;;;;;;;21.77;18.35;;;14.60;99.90;;;;;;5092188;28;20097;-71
2023/09/27 01:35:13;;;;;;;24.30;19.80;;;14.60;99.90;;;;;;5073894;28;20043;-71
2023/09/27 01:37:39;;;;;;;22.08;18.83;;;14.60;99.90;;;;;;5073940;28;20044;-71
2023/09/27 01:40:15;;;;;;;22.35;18.77;;;14.60;99.90;;;;;;5073661;28;20040;-71
2023/09/27 01:45:12;;;;;;;25.95;19.52;;;14.60;99.90;;;;;;5090764;28;20055;-76
2023/09/27 01:47:38;;;;;;;25.02;19.60;;;14.60;99.90;;;;;;5073778;28;20036;-76
2023/09/27 01:50:06;;;;;;;24.92;19.90;;;14.60;99.90;;;;;;5073201;28;20032;-76
2023/09/27 01:52:32;;;;;;;25.98;19.15;;;14.60;99.90;;;;;;5073789;28;20036;-76
2023/09/27 01:54:57;;;;;;;26.38;18.60;;;14.60;99.90;;;;;;5073722;28;20035;-76
2023/09/27 01:57:23;;;;;;;26.05;20.83;;;14.60;99.90;;;;;;5073248;28;20040;-76
2023/09/27 01:59:48;;;;;;;29.88;19.90;;;14.60;99.90;;;;;;5056742;28;20131;-76
2023/09/27 02:02:14;;;;;;;24.95;19.42;;;14.60;99.90;;;;;;5073556;28;20107;-76
2023/09/27 02:04:39;;;;;;;28.33;20.95;;;14.60;99.90;;;;;;5073721;28;20090;-76
2023/09/27 02:07:05;;;;;;;22.73;19.02;;;14.60;99.90;;;;;;5073616;28;20079;-76
2023/09/27 02:09:31;;;;;;;25.88;19.95;;;14.50;99.90;;;;;;5073551;28;20036;-76
2023/09/27 02:11:56;;;;;;;27.52;20.10;;;14.60;99.90;;;;;;5073684;28;20075;-76
2023/09/27 02:14:22;;;;;;;25.15;19.52;;;14.60;99.90;;;;;;5073694;28;20075;-76
2023/09/27 02:16:47;;;;;;;25.48;19.45;;;14.50;99.90;;;;;;5073936;28;20032;-76
2023/09/27 02:19:13;;;;;;;25.10;20.80;;;14.50;99.90;;;;;;5073436;28;20039;-76
2023/09/27 02:21:39;;;;;;;22.42;19.98;;;14.50;99.90;;;;;;5057053;28;20130;-76
2023/09/27 02:24:06;;;;;;;27.30;20.73;;;14.40;99.90;;;;;;5073933;28;20514;-78
2023/09/27 02:26:31;;;;;;;23.60;18.85;;;14.50;99.90;;;;;;5077500;28;20099;-79
2023/09/27 02:28:57;;;;;;;25.67;19.60;;;14.50;99.90;;;;;;5078209;28;20639;-76
2023/09/27 02:31:22;;;;;;;26.17;19.55;;;14.50;99.90;;;;;;5073444;28;20506;-76
2023/09/27 02:33:48;;;;;;;25.85;20.20;;;14.50;99.90;;;;;;5057074;28;20491;-76
2023/09/27 02:36:14;;;;;;;26.35;19.70;;;14.50;99.90;;;;;;5073585;28;20062;-76
2023/09/27 02:38:39;;;;;;;25.10;20.00;;;14.50;99.90;;;;;;5073229;28;20047;-76
2023/09/27 02:41:05;;;;;;;25.27;19.58;;;14.50;99.90;;;;;;5073072;28;20048;-76
2023/09/27 02:43:30;;;;;;;27.67;21.85;;;14.40;99.90;;;;;;5072978;28;20043;-75
2023/09/27 02:45:56;;;;;;;27.98;21.02;;;14.40;99.90;;;;;;5073197;28;20082;-76
2023/09/27 02:48:22;;;;;;;26.13;19.27;;;14.50;99.90;;;;;;5073038;28;20058;-76
2023/09/27 02:50:52;;;;;;;27.58;20.92;;;14.40;99.90;;;;;;5072895;28;20028;-76
2023/09/27 02:53:18;;;;;;;28.92;21.45;;;14.40;99.90;;;;;;5073323;28;20040;-76
2023/09/27 02:55:43;;;;;;;29.00;20.77;;;14.40;99.90;;;;;;5073218;28;20052;-76
2023/09/27 02:58:09;;;;;;;26.55;20.73;;;14.40;99.90;;;;;;5073105;28;20082;-76
2023/09/27 03:00:36;;;;;;;28.05;20.55;;;14.40;99.90;;;;;;5072857;28;20044;-76
2023/09/27 03:03:03;;;;;;;28.48;21.48;;;14.40;99.90;;;;;;5049035;28;20059;-76
2023/09/27 03:05:30;;;;;;;27.38;20.10;;;14.40;99.90;;;;;;5070182;28;20516;-76
2023/09/27 03:07:57;;;;;;;27.45;21.08;;;14.30;99.90;;;;;;5065076;28;20397;-76
2023/09/27 03:10:22;;;;;;;29.52;21.90;;;14.30;99.90;;;;;;5076227;28;20121;-76
2023/09/27 03:12:51;;;;;;;26.95;20.85;;;14.30;99.90;;;;;;5059989;28;20457;-76
2023/09/27 03:15:17;;;;;;;28.20;22.17;;;14.30;99.90;;;;;;5076453;28;20043;-76
2023/09/27 03:17:44;;;;;;;26.90;20.70;;;14.30;99.90;;;;;;5076303;28;20043;-76
2023/09/27 03:20:15;;;;;;;28.60;21.67;;;14.30;99.90;;;;;;5077146;28;20046;-78
2023/09/27 03:22:42;;;;;;;28.27;20.90;;;14.30;99.90;;;;;;5059587;28;20035;-76
2023/09/27 03:25:09;;;;;;;25.33;21.27;;;14.20;99.90;;;;;;5076483;28;20044;-76
2023/09/27 03:27:36;;;;;;;29.30;23.10;;;14.20;99.90;;;;;;5068772;28;20032;-78
2023/09/27 03:30:03;;;;;;;27.65;21.83;;;14.20;99.90;;;;;;5077154;28;20399;-78
2023/09/27 03:32:29;;;;;;;26.10;22.25;;;14.20;99.90;;;;;;5077055;28;20035;-78
2023/09/27 03:34:55;;;;;;;27.98;22.70;;;14.20;99.90;;;;;;5059983;28;20465;-76
2023/09/27 03:37:20;;;;;;;28.98;22.48;;;14.20;99.90;;;;;;5059461;28;20087;-76
2023/09/27 03:39:46;;;;;;;33.40;23.27;;;14.20;99.90;;;;;;5076326;28;20036;-76
2023/09/27 03:42:12;;;;;;;28.83;22.77;;;14.20;99.90;;;;;;5075994;28;20035;-76
2023/09/27 03:44:38;;;;;;;27.50;21.63;;;14.20;99.90;;;;;;5075757;28;20131;-76
2023/09/27 03:47:04;;;;;;;30.30;21.70;;;14.20;99.90;;;;;;5076053;28;20611;-76
2023/09/27 03:49:29;;;;;;;26.17;20.92;;;14.20;99.90;;;;;;5075934;28;20028;-76
2023/09/27 03:51:55;;;;;;;31.23;22.05;;;14.20;99.90;;;;;;5075973;28;20506;-76
2023/09/27 03:54:22;;;;;;;26.10;21.77;;;14.10;99.90;;;;;;5075687;28;20487;-76
2023/09/27 03:56:47;;;;;;;29.23;23.00;;;14.10;99.90;;;;;;5058957;28;20123;-75
2023/09/27 03:59:13;;;;;;;34.92;24.70;;;14.10;99.90;;;;;;5075720;28;20476;-75
2023/09/27 04:01:39;;;;;;;28.95;21.70;;;14.10;99.90;;;;;;5075692;28;20123;-76
2023/09/27 04:04:05;;;;;;;29.98;23.33;;;14.00;99.90;;;;;;5075485;28;20169;-76
2023/09/27 04:06:31;;;;;;;29.83;21.65;;;14.00;99.90;;;;;;5075405;28;20040;-76
2023/09/27 04:08:56;;;;;;;30.67;22.30;;;14.00;99.90;;;;;;5058832;28;20044;-76
2023/09/27 04:11:22;;;;;;;28.50;21.23;;;14.00;99.90;;;;;;5075265;28;20036;-76
2023/09/27 04:13:48;;;;;;;28.63;23.45;;;13.90;99.90;;;;;;5075284;28;20047;-76
2023/09/27 04:16:14;;;;;;;25.35;21.58;;;13.90;99.90;;;;;;5058630;28;20040;-75
2023/09/27 04:18:39;;;;;;;31.30;21.95;;;13.90;99.90;;;;;;5093069;28;20070;-76
2023/09/27 04:21:08;;;;;;;30.10;22.48;;;13.80;99.90;;;;;;5075626;28;20047;-78
2023/09/27 04:23:36;;;;;;;27.90;22.80;;;13.80;99.90;;;;;;5058994;28;20119;-78
2023/09/27 04:26:04;;;;;;;26.35;22.02;;;13.80;99.90;;;;;;5075693;28;20048;-78
2023/09/27 04:28:30;;;;;;;26.42;22.40;;;13.80;99.90;;;;;;5075351;28;20114;-78
2023/09/27 04:30:56;;;;;;;29.08;22.83;;;13.80;99.90;;;;;;5075187;28;20075;-78
2023/09/27 04:33:21;;;;;;;29.55;21.65;;;13.80;99.90;;;;;;5058993;28;20451;-78
2023/09/27 04:35:47;;;;;;;31.38;22.52;;;13.80;99.90;;;;;;5058880;28;20554;-78
2023/09/27 04:38:14;;;;;;;33.63;23.55;;;13.80;99.90;;;;;;5075242;28;20067;-78
2023/09/27 04:40:40;;;;;;;30.92;23.05;;;13.70;99.90;;;;;;5075019;28;20055;-78
2023/09/27 04:43:06;;;;;;;32.95;23.05;;;13.70;99.90;;;;;;5058293;28;20044;-78
2023/09/27 04:45:33;;;;;;;33.33;23.67;;;13.70;99.90;;;;;;5075123;28;20089;-78
2023/09/27 04:48:00;;;;;;;31.30;23.92;;;13.70;99.90;;;;;;5075160;28;20044;-76
2023/09/27 04:50:25;;;;;;;33.53;24.70;;;13.70;99.90;;;;;;5074332;28;20050;-76
2023/09/27 04:52:52;;;;;;;29.98;23.80;;;13.60;99.90;;;;;;5074494;28;20032;-75
2023/09/27 04:55:17;;;;;;;32.40;23.63;;;13.60;99.90;;;;;;5074483;28;20411;-76
2023/09/27 04:57:43;;;;;;;33.42;25.15;;;13.60;99.90;;;;;;5074327;28;20044;-76
2023/09/27 05:00:18;;;;;;;31.17;24.98;;;13.60;99.90;;;;;;5057385;28;20039;-75
2023/09/27 05:02:45;;;;;;;31.30;24.77;;;13.50;99.90;;;;;;5074428;28;20085;-76
2023/09/27 05:05:10;;;;;;;36.25;25.63;;;13.50;99.90;;;;;;5057662;28;20055;-76
2023/09/27 05:07:36;;;;;;;33.45;24.48;;;13.50;99.90;;;;;;5074619;28;20040;-76
2023/09/27 05:10:01;;;;;;;32.10;25.13;;;13.50;99.90;;;;;;5074028;28;20544;-76
2023/09/27 05:12:27;;;;;;;33.28;25.58;;;13.50;99.90;;;;;;5092458;28;20044;-75
2023/09/27 05:14:52;;;;;;;32.38;24.65;;;13.50;99.90;;;;;;5074093;28;20040;-76
2023/09/27 05:17:18;;;;;;;32.00;24.05;;;13.50;99.90;;;;;;5074035;28;20090;-75
2023/09/27 05:19:44;;;;;;;30.83;24.83;;;13.40;99.90;;;;;;5073662;28;20096;-76
2023/09/27 05:22:09;;;;;;;32.55;24.92;;;13.50;99.90;;;;;;5056908;28;20044;-75
2023/09/27 05:24:38;;;;;;;38.20;26.67;;;13.40;99.90;;;;;;5073695;28;20040;-76
2023/09/27 05:27:05;;;;;;;34.92;25.77;;;13.40;99.90;;;;;;5057178;28;20040;-76
2023/09/27 05:29:31;;;;;;;29.35;23.63;;;13.40;99.90;;;;;;5057009;28;20036;-76
2023/09/27 05:31:57;;;;;;;33.67;25.02;;;13.40;99.90;;;;;;5056609;28;20038;-75
2023/09/27 05:34:23;;;;;;;32.47;24.85;;;13.40;99.90;;;;;;5073842;28;20120;-76
2023/09/27 05:36:48;;;;;;;34.10;25.33;;;13.40;99.90;;;;;;5073946;28;20044;-76
2023/09/27 05:39:14;;;;;;;32.78;24.45;;;13.40;99.90;;;;;;5073620;28;20097;-76
2023/09/27 05:41:39;;;;;;;33.97;26.27;;;13.40;99.90;;;;;;5057205;28;20036;-76
2023/09/27 05:44:05;;;;;;;34.30;25.13;;;13.40;99.90;;;;;;5073465;28;20036;-76
2023/09/27 05:46:33;;;;;;;34.05;26.48;;;13.50;99.90;;;;;;5073629;28;20130;-76
2023/09/27 05:49:01;;;;;;;31.67;24.92;;;13.50;99.90;;;;;;5073815;28;20102;-76
2023/09/27 05:51:29;;;;;;;36.25;26.48;;;13.50;99.90;;;;;;5057087;28;20521;-76
2023/09/27 05:53:54;;;;;;;35.38;25.30;;;13.60;99.90;;;;;;5073340;28;20495;-76
2023/09/27 05:56:20;;;;;;;34.00;25.38;;;13.60;99.90;;;;;;5073909;28;20040;-76
2023/09/27 05:58:45;;;;;;;41.25;25.67;;;13.60;99.90;;;;;;5056823;28;20538;-76
2023/09/27 06:01:12;;;;;;;35.28;27.10;;;13.60;99.90;;;;;;5073797;28;20040;-78
2023/09/27 06:03:38;;;;;;;35.30;26.98;;;13.70;99.90;;;;;;5074115;28;20082;-78
2023/09/27 06:06:05;;;;;;;36.92;27.10;;;13.70;99.90;;;;;;5074050;28;20511;-78
2023/09/27 06:08:30;;;;;;;38.15;29.50;;;13.70;99.90;;;;;;5073768;28;20040;-78
2023/09/27 06:10:56;;;;;;;36.97;28.13;;;13.80;99.90;;;;;;5074109;28;20032;-78
2023/09/27 06:13:23;;;;;;;40.60;27.85;;;13.90;99.90;;;;;;5057066;28;20040;-78
2023/09/27 06:15:49;;;;;;;38.38;28.33;;;13.90;99.90;;;;;;5073681;28;20521;-76
2023/09/27 06:18:15;;;;;;;33.13;25.58;;;13.90;99.90;;;;;;5056686;28;20040;-77
2023/09/27 06:20:40;;;;;;;40.97;25.58;;;14.00;99.90;;;;;;5073242;28;20051;-77
2023/09/27 06:23:06;;;;;;;34.58;26.30;;;14.00;99.90;;;;;;5091425;28;20036;-77
2023/09/27 06:25:34;;;;;;;33.47;25.98;;;14.00;99.90;;;;;;5074796;28;20042;-78
2023/09/27 06:28:03;;;;;;;35.33;27.20;;;14.00;99.90;;;;;;5074028;28;20064;-76
2023/09/27 06:30:29;;;;;;;33.72;26.90;;;14.10;99.90;;;;;;5072879;28;20032;-76
2023/09/27 06:32:54;;;;;;;35.65;26.50;;;14.20;99.90;;;;;;5073164;28;20093;-75
2023/09/27 06:35:20;;;;;;;37.22;26.20;;;14.20;99.90;;;;;;5072860;28;20044;-75
2023/09/27 06:37:49;;;;;;;34.15;26.95;;;14.20;99.90;;;;;;5073882;28;20503;-76
2023/09/27 06:40:22;;;;;;;31.20;25.08;;;14.30;99.90;;;;;;5072853;28;20032;-76
2023/09/27 06:42:48;;;;;;;33.92;26.58;;;14.30;99.90;;;;;;5074498;28;20570;-76
2023/09/27 06:45:14;;;;;;;35.83;25.83;;;14.30;99.90;;;;;;5077142;28;20480;-78
2023/09/27 06:47:41;;;;;;;36.60;26.38;;;14.30;99.90;;;;;;5078493;28;20058;-76
2023/09/27 06:50:10;;;;;;;33.97;26.15;;;14.40;99.90;;;;;;5076473;28;20047;-76
2023/09/27 06:52:38;;;;;;;35.95;27.35;;;14.40;99.90;;;;;;5076782;28;20138;-75
2023/09/27 06:55:06;;;;;;;34.90;26.42;;;14.40;99.90;;;;;;5076896;28;20048;-76
2023/09/27 06:57:31;;;;;;;36.80;25.70;;;14.40;99.90;;;;;;5094825;28;20499;-77
2023/09/27 06:59:57;;;;;;;36.28;26.77;;;14.40;99.90;;;;;;5094747;28;20036;-77
2023/09/27 07:02:22;;;;;;;38.25;25.65;;;14.50;99.90;;;;;;5075619;28;20039;-76
2023/09/27 07:04:48;;;;;;;31.58;25.10;;;14.60;99.90;;;;;;5094333;28;20400;-77
2023/09/27 07:07:13;;;;;;;34.58;25.73;;;14.70;99.90;;;;;;5076499;28;20410;-76
2023/09/27 07:09:40;;;;;;;33.90;26.75;;;15.00;99.90;;;;;;5059527;28;20408;-76
2023/09/27 07:12:06;;;;;;;33.78;26.58;;;15.30;99.90;;;;;;5076542;28;20127;-76
2023/09/27 07:14:31;;;;;;;33.03;25.90;;;15.50;99.90;;;;;;5076394;28;20622;-76
2023/09/27 07:16:57;;;;;;;29.45;23.70;;;15.60;99.90;;;;;;5076538;28;20123;-76
2023/09/27 07:19:23;;;;;;;31.20;24.33;;;15.70;99.90;;;;;;5076243;28;20414;-76
2023/09/27 07:21:49;;;;;;;32.63;24.42;;;15.80;99.90;;;;;;5076363;28;20032;-76
2023/09/27 07:24:14;;;;;;;30.77;24.13;;;15.80;99.90;;;;;;5076300;28;20032;-77
2023/09/27 07:26:41;;;;;;;33.95;25.25;;;15.80;99.90;;;;;;5076315;28;20074;-76
2023/09/27 07:29:07;;;;;;;28.63;24.23;;;16.00;99.90;;;;;;5059232;28;20498;-76
2023/09/27 07:31:33;;;;;;;30.92;24.88;;;16.00;99.90;;;;;;5076177;28;20044;-76
2023/09/27 07:33:59;;;;;;;30.13;24.15;;;16.30;99.90;;;;;;5076139;28;20040;-75
2023/09/27 07:36:24;;;;;;;33.72;26.02;;;16.40;99.90;;;;;;5076114;28;20071;-72
2023/09/27 07:38:51;;;;;;;30.75;23.60;;;16.50;99.90;;;;;;5075842;28;20491;-72
2023/09/27 07:41:17;;;;;;;32.28;24.92;;;16.50;99.90;;;;;;5059397;28;20103;-72
2023/09/27 07:43:43;;;;;;;37.28;26.52;;;16.40;99.90;;;;;;5069649;22;20139;-70
2023/09/27 07:46:12;;;;;;;29.63;25.83;;;16.40;99.90;;;;;;4990506;28;20056;-70
2023/09/27 07:48:39;;;;;;;36.05;26.83;;;16.30;99.90;;;;;;4991020;28;20084;-70
2023/09/27 07:51:17;;;;;;;31.05;25.10;;;16.60;99.90;;;;;;4991048;28;20528;-70
2023/09/27 07:53:42;;;;;;;31.80;26.17;;;16.80;99.90;;;;;;4990624;28;20498;-70
2023/09/27 07:56:17;;;;;;;28.88;24.80;;;17.00;99.90;;;;;;4991450;28;20038;-70
2023/09/27 07:58:44;;;;;;;29.15;23.17;;;17.20;99.90;;;;;;4990353;28;20064;-70
2023/09/27 08:01:12;;;;;;;28.77;24.02;;;17.40;99.90;;;;;;4984963;28;20038;-70
2023/09/27 08:03:38;;;;;;;27.10;21.83;;;17.70;99.90;;;;;;4990063;28;20039;-70
2023/09/27 08:06:04;;;;;;;29.63;22.70;;;17.80;99.90;;;;;;4986751;28;20111;-71
2023/09/27 08:08:30;;;;;;;24.88;21.08;;;17.90;99.90;;;;;;4979980;28;20061;-70
2023/09/27 08:10:57;;;;;;;26.08;21.33;;;17.80;99.90;;;;;;4989479;28;20417;-71
2023/09/27 08:13:23;;;;;;;34.38;24.77;;;17.80;99.90;;;;;;4990966;28;20057;-71
2023/09/27 08:15:51;;;;;;;31.25;23.65;;;17.90;99.90;;;;;;4991151;28;20046;-70
2023/09/27 08:18:17;;;;;;;29.70;23.52;;;18.00;99.90;;;;;;5006066;28;20049;-70
2023/09/27 08:20:43;;;;;;;29.95;23.05;;;18.10;99.90;;;;;;4990625;28;20460;-70
2023/09/27 08:23:09;;;;;;;34.35;24.55;;;18.30;99.90;;;;;;4990847;28;20516;-70
2023/09/27 08:25:37;;;;;;;28.48;23.95;;;18.50;99.90;;;;;;4991027;28;20042;-71
2023/09/27 08:28:04;;;;;;;27.35;20.75;;;18.60;99.90;;;;;;4989358;28;20547;-70
2023/09/27 08:30:29;;;;;;;27.88;23.25;;;18.90;99.90;;;;;;4984519;28;20073;-70
2023/09/27 08:32:55;;;;;;;29.15;22.60;;;19.00;99.90;;;;;;4990307;28;20438;-70
2023/09/27 08:35:20;;;;;;;29.42;22.75;;;19.20;99.90;;;;;;4978829;28;20050;-70
2023/09/27 08:37:46;;;;;;;29.83;22.75;;;19.30;99.90;;;;;;4982202;28;20125;-70
2023/09/27 08:40:15;;;;;;;24.27;20.77;;;19.30;99.90;;;;;;4989026;28;20042;-70
2023/09/27 08:42:42;;;;;;;28.25;21.67;;;19.40;99.90;;;;;;4990148;28;20080;-71
2023/09/27 08:45:12;;;;;;;32.08;22.52;;;19.50;99.90;;;;;;5000385;28;20045;-70
2023/09/27 08:47:44;;;;;;;26.65;21.55;;;19.50;99.90;;;;;;5010053;28;20030;-69
2023/09/27 08:50:14;;;;;;;27.83;20.85;;;19.50;99.90;;;;;;5010133;28;20042;-70
2023/09/27 08:52:48;;;;;;;29.35;21.58;;;19.70;99.90;;;;;;5010303;28;20044;-70
2023/09/27 08:55:14;;;;;;;35.58;29.15;;;19.70;99.90;;;;;;5008727;28;20099;-70
2023/09/27 08:57:51;;;;;;;44.88;38.33;;;19.70;99.90;;;;;;4991190;28;20085;-70
2023/09/27 09:00:22;;;;;;;56.47;43.50;;;19.60;99.90;;;;;;4988682;28;20069;-71
2023/09/27 09:02:52;;;;;;;55.83;47.13;;;19.60;99.90;;;;;;4989380;28;20490;-71
2023/09/27 09:05:18;;;;;;;60.42;46.30;;;19.70;99.90;;;;;;4988201;28;20496;-70
2023/09/27 09:07:44;;;;;;;50.38;41.67;;;19.90;99.90;;;;;;4989780;28;20070;-71
2023/09/27 09:10:14;;;;;;;34.33;27.40;;;20.00;99.90;;;;;;4989990;28;20073;-70
2023/09/27 09:12:41;;;;;;;28.83;20.15;;;20.00;99.90;;;;;;4989901;28;20053;-70
2023/09/27 09:15:15;;;;;;;26.10;20.02;;;20.00;99.90;;;;;;4989944;28;20057;-70
2023/09/27 09:17:48;;;;;;;24.20;18.85;;;20.20;99.90;;;;;;4995684;28;20327;-70
2023/09/27 09:20:32;;;;;;;23.75;18.65;;;20.20;99.90;;;;;;4987458;28;20042;-70
2023/09/27 09:23:03;;;;;;;25.38;16.83;;;20.20;99.90;;;;;;4980534;28;20417;-70
2023/09/27 09:25:29;;;;;;;21.90;16.35;;;20.20;99.90;;;;;;4983255;28;20050;-70
2023/09/27 09:28:02;;;;;;;26.00;18.13;;;20.20;99.90;;;;;;4982832;28;20031;-69
2023/09/27 09:30:39;;;;;;;20.35;15.10;;;20.20;99.90;;;;;;4970115;28;20046;-72
2023/09/27 09:33:36;;;;;;;23.92;16.67;;;20.30;99.90;;;;;;4970271;28;20047;-70
2023/09/27 09:36:02;;;;;;;23.33;16.95;;;20.20;99.90;;;;;;4989207;28;20034;-70
2023/09/27 09:38:30;;;;;;;22.67;17.13;;;20.20;99.90;;;;;;5077191;28;20519;-70
2023/09/27 09:41:02;;;;;;;21.10;15.15;;;20.20;99.90;;;;;;5073722;28;20036;-70
2023/09/27 09:43:29;;;;;;;18.13;13.80;;;20.40;99.90;;;;;;5091103;28;20569;-70
2023/09/27 09:45:55;;;;;;;21.17;13.43;;;20.40;99.90;;;;;;5007993;28;20499;-70
2023/09/27 09:48:23;;;;;;;14.65;11.77;;;20.40;99.90;;;;;;5091719;28;20038;-70
2023/09/27 09:50:49;;;;;;;15.18;11.25;;;20.50;99.90;;;;;;5091851;28;20089;-71
2023/09/27 09:53:16;;;;;;;17.27;13.15;;;20.40;99.90;;;;;;5090625;28;20039;-70
2023/09/27 09:55:46;;;;;;;18.17;11.88;;;20.50;99.90;;;;;;5091652;28;20414;-70
2023/09/27 09:58:47;;;;;;;16.67;12.13;;;20.30;99.90;;;;;;5091467;28;20503;-70
2023/09/27 10:01:18;;;;;;;18.98;12.77;;;20.40;99.90;;;;;;5091654;28;20537;-70
2023/09/27 10:03:47;;;;;;;17.92;12.73;;;20.30;99.90;;;;;;5090216;28;20044;-70
2023/09/27 10:06:17;;;;;;;17.42;11.73;;;20.30;99.90;;;;;;5091840;28;20416;-70
2023/09/27 10:08:45;;;;;;;16.25;11.55;;;20.30;99.90;;;;;;5091587;28;20036;-70
2023/09/27 10:11:11;;;;;;;14.52;10.32;;;20.30;99.90;;;;;;5090171;28;20068;-71
2023/09/27 10:13:39;;;;;;;19.23;10.30;;;20.50;99.90;;;;;;5090353;28;20078;-71
2023/09/27 10:16:08;;;;;;;19.67;11.75;;;20.60;99.90;;;;;;5090337;28;20119;-70
2023/09/27 10:18:38;;;;;;;16.45;11.60;;;20.70;99.90;;;;;;5094776;28;20048;-70
2023/09/27 10:21:07;;;;;;;18.67;10.75;;;20.70;99.90;;;;;;5095627;28;20051;-71
2023/09/27 10:23:52;;;;;;;14.15;10.93;;;20.70;99.90;;;;;;5093811;28;20427;-71
2023/09/27 10:26:25;;;;;;;16.50;10.80;;;20.80;99.90;;;;;;5095546;28;20044;-71
2023/09/27 10:29:06;;;;;;;14.32;8.73;;;20.80;99.90;;;;;;5094076;28;20048;-69
2023/09/27 10:31:37;;;;;;;12.50;8.63;;;20.90;99.90;;;;;;5094480;28;20122;-69
2023/09/27 10:34:27;;;;;;;11.80;7.25;;;21.00;99.90;;;;;;5094340;28;20539;-69
2023/09/27 10:36:54;;;;;;;12.40;8.95;;;21.10;99.90;;;;;;5095490;28;20089;-70
2023/09/27 10:39:19;;;;;;;13.98;10.52;;;21.20;99.90;;;;;;5095177;28;20499;-70
2023/09/27 10:41:47;;;;;;;14.35;9.32;;;21.30;99.90;;;;;;5095492;28;20039;-70
2023/09/27 10:44:28;;;;;;;15.63;11.40;;;21.30;99.90;;;;;;5095162;28;20093;-70
2023/09/27 10:46:53;;;;;;;15.90;11.63;;;21.30;99.90;;;;;;5094198;28;20134;-70
2023/09/27 10:49:24;;;;;;;15.32;10.40;;;21.30;99.90;;;;;;5071967;28;20621;-69
2023/09/27 10:51:51;;;;;;;17.55;12.10;;;21.20;99.90;;;;;;4982555;28;20038;-70
2023/09/27 10:54:22;;;;;;;18.48;11.13;;;21.20;99.90;;;;;;4979624;28;20050;-70
2023/09/27 10:56:52;;;;;;;12.25;9.60;;;21.20;99.90;;;;;;4982102;28;20543;-70
2023/09/27 10:59:22;;;;;;;18.23;8.95;;;21.30;99.90;;;;;;4974563;28;20042;-70
2023/09/27 11:01:48;;;;;;;17.65;9.80;;;21.30;99.90;;;;;;4972851;28;20053;-70
2023/09/27 11:04:13;;;;;;;15.27;9.93;;;21.30;99.90;;;;;;4972509;28;20043;-70
2023/09/27 11:06:39;;;;;;;14.88;9.57;;;21.30;99.90;;;;;;4971252;28;20043;-70
2023/09/27 11:09:06;;;;;;;14.15;9.70;;;21.30;99.90;;;;;;4972117;28;20039;-70
2023/09/27 11:11:35;;;;;;;13.85;9.93;;;21.30;99.90;;;;;;4971522;28;20051;-70
2023/09/27 11:14:01;;;;;;;14.20;10.35;;;21.30;99.90;;;;;;4972557;28;20116;-71
2023/09/27 11:16:26;;;;;;;12.10;9.27;;;21.30;99.90;;;;;;4972529;28;20507;-70
2023/09/27 11:18:53;;;;;;;16.17;11.05;;;21.30;99.90;;;;;;4972440;28;20125;-70
2023/09/27 11:21:19;;;;;;;18.70;11.13;;;21.40;99.90;;;;;;4970856;28;20045;-70
2023/09/27 11:23:58;;;;;;;14.93;10.82;;;21.40;99.90;;;;;;4972122;28;20502;-70
2023/09/27 11:26:25;;;;;;;16.88;11.18;;;21.40;99.90;;;;;;4972559;28;20043;-69
2023/09/27 11:29:02;;;;;;;12.68;9.52;;;21.40;99.90;;;;;;4971274;28;20057;-70
2023/09/27 11:31:38;;;;;;;15.45;12.10;;;21.50;99.90;;;;;;4972419;28;20455;-70
2023/09/27 11:34:19;;;;;;;16.38;13.63;;;21.50;99.90;;;;;;4971997;28;20084;-71
2023/09/27 11:36:53;;;;;;;19.77;13.32;;;21.40;99.90;;;;;;4971459;28;20101;-70
2023/09/27 11:39:26;;;;;;;17.50;13.80;;;21.40;99.90;;;;;;4970042;28;20100;-70
2023/09/27 11:41:59;;;;;;;19.63;14.18;;;21.30;99.90;;;;;;4972147;28;20414;-71
2023/09/27 11:44:26;;;;;;;20.58;14.23;;;21.20;99.90;;;;;;4970701;28;20035;-70
2023/09/27 11:47:12;;;;;;;17.92;13.93;;;21.10;99.90;;;;;;4971781;28;20414;-72
2023/09/27 11:49:38;;;;;;;15.45;13.43;;;21.00;99.90;;;;;;4971418;28;20533;-71
2023/09/27 11:52:10;;;;;;;17.25;13.43;;;21.10;99.90;;;;;;4972011;28;20042;-70
2023/09/27 11:54:42;;;;;;;20.92;13.75;;;21.20;99.90;;;;;;4974931;28;20532;-70
2023/09/27 11:57:09;;;;;;;18.60;13.57;;;21.30;99.90;;;;;;4980411;28;20038;-71
2023/09/27 11:59:35;;;;;;;17.38;13.90;;;21.30;99.90;;;;;;4971500;28;20099;-70
2023/09/27 12:02:00;;;;;;;19.17;14.70;;;21.40;99.90;;;;;;4971896;28;20509;-70
2023/09/27 12:04:26;;;;;;;19.33;13.20;;;21.30;99.90;;;;;;4971701;28;20039;-70
2023/09/27 12:06:51;;;;;;;17.23;12.95;;;21.40;99.90;;;;;;4971892;28;20502;-70
2023/09/27 12:09:17;;;;;;;19.10;13.32;;;21.30;99.90;;;;;;4971569;28;20530;-70
2023/09/27 12:11:42;;;;;;;17.65;11.45;;;21.30;99.90;;;;;;4971711;28;20402;-70
2023/09/27 12:14:08;;;;;;;16.45;12.15;;;21.30;99.90;;;;;;4971608;28;20410;-71
2023/09/27 12:16:34;;;;;;;19.20;12.93;;;21.20;99.90;;;;;;4971800;28;20041;-71
2023/09/27 12:18:59;;;;;;;17.52;10.52;;;21.20;99.90;;;;;;4971392;28;20043;-71
2023/09/27 12:21:25;;;;;;;13.20;10.48;;;21.10;99.90;;;;;;4971287;28;20075;-71
2023/09/27 12:23:50;;;;;;;15.18;12.07;;;21.20;99.90;;;;;;4971422;28;20035;-70
2023/09/27 12:26:16;;;;;;;18.67;12.30;;;21.20;99.90;;;;;;4971497;28;20131;-70
2023/09/27 12:28:42;;;;;;;14.13;11.75;;;21.20;99.90;;;;;;4971293;28;20448;-70
2023/09/27 12:31:08;;;;;;;15.13;11.73;;;21.30;99.90;;;;;;4953889;28;20046;-70
2023/09/27 12:33:35;;;;;;;15.70;11.95;;;21.40;99.90;;;;;;4971508;28;20066;-71